createdAt,value
2022-11-01T00:02:03.563Z,51.40
2022-11-01T00:04:30.021Z,57.28
2022-11-01T00:06:56.531Z,61.03
2022-11-01T00:09:23.153Z,49.65
2022-11-01T00:11:49.822Z,55.25
2022-11-01T00:14:17.461Z,44.25
2022-11-01T00:16:43.906Z,54.45
2022-11-01T00:19:10.833Z,40.45
2022-11-01T00:21:37.386Z,43.80
2022-11-01T00:24:03.934Z,48.42
2022-11-01T00:26:30.512Z,52.78
2022-11-01T00:28:57.113Z,47.28
2022-11-01T00:31:23.673Z,40.28
2022-11-01T00:33:50.162Z,47.83
2022-11-01T00:36:16.656Z,39.60
2022-11-01T00:38:43.305Z,43.00
2022-11-01T00:41:09.840Z,37.33
2022-11-01T00:43:36.599Z,46.35
2022-11-01T00:46:03.643Z,46.35
2022-11-01T00:48:30.466Z,46.42
2022-11-01T00:50:56.976Z,48.65
2022-11-01T00:53:23.454Z,43.25
2022-11-01T00:55:50.150Z,39.50
2022-11-01T00:58:16.778Z,50.42
2022-11-01T01:00:43.409Z,48.28
2022-11-01T01:03:09.979Z,41.90
2022-11-01T01:05:36.499Z,35.67
2022-11-01T01:08:03.164Z,38.47
2022-11-01T01:10:29.773Z,37.33
2022-11-01T01:12:56.348Z,33.83
2022-11-01T01:15:22.929Z,41.53
2022-11-01T01:17:49.488Z,40.60
2022-11-01T01:20:16.068Z,46.13
2022-11-01T01:22:42.794Z,39.20
2022-11-01T01:25:10.457Z,50.20
2022-11-01T01:27:36.940Z,41.60
2022-11-01T01:30:04.435Z,39.30
2022-11-01T01:32:31.008Z,36.28
2022-11-01T01:34:57.560Z,36.95
2022-11-01T01:37:24.027Z,41.25
2022-11-01T01:39:50.546Z,33.33
2022-11-01T01:42:24.479Z,36.38
2022-11-01T01:45:10.907Z,38.45
2022-11-01T01:47:38.937Z,36.40
2022-11-01T01:50:05.358Z,42.47
2022-11-01T01:52:32.670Z,30.67
2022-11-01T01:55:00.456Z,33.83
2022-11-01T01:57:26.963Z,32.08
2022-11-01T01:59:53.656Z,34.88
2022-11-01T02:02:21.396Z,35.03
2022-11-01T02:04:50.981Z,31.33
2022-11-01T02:07:17.664Z,38.10
2022-11-01T02:09:44.399Z,35.85
2022-11-01T02:12:12.327Z,25.75
2022-11-01T02:14:42.219Z,25.20
2022-11-01T02:17:12.327Z,35.97
2022-11-01T02:19:57.840Z,25.58
2022-11-01T02:22:50.591Z,31.00
2022-11-01T02:25:35.712Z,28.45
2022-11-01T02:28:10.956Z,27.60
2022-11-01T02:30:59.222Z,32.97
2022-11-01T02:33:30.774Z,26.67
2022-11-01T02:36:06.111Z,29.70
2022-11-01T02:38:42.883Z,28.98
2022-11-01T02:41:18.120Z,29.45
2022-11-01T02:43:53.294Z,21.48
2022-11-01T02:46:39.335Z,28.38
2022-11-01T02:49:06.807Z,30.05
2022-11-01T02:51:34.534Z,27.48
2022-11-01T02:54:01.910Z,24.33
2022-11-01T02:56:28.670Z,26.05
2022-11-01T02:58:55.496Z,23.10
2022-11-01T03:01:24.184Z,33.65
2022-11-01T03:03:52.706Z,23.27
2022-11-01T03:06:32.525Z,23.33
2022-11-01T03:09:04.815Z,24.60
2022-11-01T03:12:00.821Z,29.48
2022-11-01T03:14:48.892Z,37.67
2022-11-01T03:17:23.730Z,42.22
2022-11-01T03:19:52.287Z,35.60
2022-11-01T03:22:27.802Z,31.92
2022-11-01T03:25:26.804Z,31.58
2022-11-01T03:27:56.086Z,39.70
2022-11-01T03:30:22.640Z,46.88
2022-11-01T03:32:53.895Z,30.00
2022-11-01T03:35:25.946Z,35.22
2022-11-01T03:37:54.850Z,30.08
2022-11-01T03:40:23.467Z,27.30
2022-11-01T03:42:51.095Z,33.20
2022-11-01T03:45:20.689Z,39.00
2022-11-01T03:47:47.324Z,46.58
2022-11-01T03:50:15.509Z,33.97
2022-11-01T03:52:42.704Z,34.30
2022-11-01T03:55:18.673Z,40.85
2022-11-01T03:57:55.527Z,61.92
2022-11-01T04:00:21.932Z,71.63
2022-11-01T04:02:49.129Z,35.95
2022-11-01T04:05:15.852Z,34.55
2022-11-01T04:07:43.293Z,35.78
2022-11-01T04:10:09.891Z,44.03
2022-11-01T04:12:36.443Z,62.00
2022-11-01T04:15:21.985Z,60.10
2022-11-01T04:18:07.389Z,39.13
2022-11-01T04:20:34.418Z,34.45
2022-11-01T04:23:01.249Z,53.35
2022-11-01T04:25:28.264Z,41.13
2022-11-01T04:27:57.739Z,32.67
2022-11-01T04:30:25.052Z,27.35
2022-11-01T04:32:51.535Z,42.45
2022-11-01T04:35:18.181Z,27.95
2022-11-01T04:37:44.952Z,39.55
2022-11-01T04:40:12.792Z,33.50
2022-11-01T04:42:39.557Z,40.42
2022-11-01T04:45:06.685Z,27.92
2022-11-01T04:47:33.449Z,38.70
2022-11-01T04:49:59.996Z,28.38
2022-11-01T04:52:26.875Z,33.22
2022-11-01T04:54:53.368Z,32.00
2022-11-01T04:57:25.738Z,32.72
2022-11-01T04:59:53.129Z,47.08
2022-11-01T05:02:20.709Z,54.10
2022-11-01T05:04:47.202Z,31.58
2022-11-01T05:07:14.076Z,39.65
2022-11-01T05:09:41.165Z,42.53
2022-11-01T05:12:08.277Z,46.45
2022-11-01T05:14:34.892Z,59.60
2022-11-01T05:17:01.655Z,36.53
2022-11-01T05:19:28.094Z,24.52
2022-11-01T05:21:54.721Z,29.25
2022-11-01T05:24:21.154Z,26.33
2022-11-01T05:26:49.324Z,34.08
2022-11-01T05:29:24.907Z,27.40
2022-11-01T05:31:58.901Z,41.42
2022-11-01T05:34:25.420Z,30.02
2022-11-01T05:36:51.922Z,68.40
2022-11-01T05:39:18.344Z,36.15
2022-11-01T05:41:44.920Z,39.30
2022-11-01T05:44:11.351Z,49.08
2022-11-01T05:46:37.990Z,30.05
2022-11-01T05:49:04.404Z,37.78
2022-11-01T05:51:30.839Z,52.10
2022-11-01T05:53:57.343Z,47.65
2022-11-01T05:56:23.843Z,55.05
2022-11-01T05:58:50.362Z,31.60
2022-11-01T06:01:17.932Z,35.35
2022-11-01T06:03:44.567Z,36.85
2022-11-01T06:06:11.859Z,26.08
2022-11-01T06:08:38.452Z,56.17
2022-11-01T06:11:06.106Z,40.83
2022-11-01T06:13:33.175Z,45.92
2022-11-01T06:16:04.177Z,36.40
2022-11-01T06:18:30.871Z,31.92
2022-11-01T06:20:57.875Z,34.35
2022-11-01T06:23:24.428Z,32.38
2022-11-01T06:25:51.004Z,30.58
2022-11-01T06:28:17.482Z,43.83
2022-11-01T06:30:44.236Z,24.77
2022-11-01T06:33:10.993Z,39.47
2022-11-01T06:35:37.904Z,42.80
2022-11-01T06:38:07.442Z,21.45
2022-11-01T06:40:34.511Z,29.67
2022-11-01T06:43:02.036Z,24.92
2022-11-01T06:45:29.355Z,47.90
2022-11-01T06:47:56.012Z,25.05
2022-11-01T06:50:22.573Z,23.90
2022-11-01T06:52:49.184Z,27.40
2022-11-01T06:55:16.124Z,28.38
2022-11-01T06:57:42.786Z,30.85
2022-11-01T07:00:09.719Z,50.88
2022-11-01T07:02:36.352Z,45.88
2022-11-01T07:05:03.079Z,40.13
2022-11-01T07:07:29.610Z,23.95
2022-11-01T07:09:56.046Z,28.58
2022-11-01T07:12:22.614Z,42.30
2022-11-01T07:14:49.167Z,21.88
2022-11-01T07:17:15.617Z,25.20
2022-11-01T07:19:42.050Z,26.33
2022-11-01T07:22:08.698Z,30.35
2022-11-01T07:24:35.191Z,19.75
2022-11-01T07:27:01.670Z,21.23
2022-11-01T07:29:28.288Z,36.92
2022-11-01T07:31:54.726Z,42.60
2022-11-01T07:34:21.152Z,27.08
2022-11-01T07:36:47.627Z,23.65
2022-11-01T07:39:14.157Z,32.65
2022-11-01T07:41:40.717Z,22.35
2022-11-01T07:44:07.146Z,20.63
2022-11-01T07:46:33.664Z,23.70
2022-11-01T07:49:00.534Z,26.92
2022-11-01T07:51:28.210Z,24.58
2022-11-01T07:53:54.852Z,26.52
2022-11-01T07:56:22.117Z,31.65
2022-11-01T07:58:48.701Z,26.23
2022-11-01T08:01:15.267Z,26.13
2022-11-01T08:03:41.799Z,30.30
2022-11-01T08:06:08.459Z,22.17
2022-11-01T08:08:34.971Z,29.67
2022-11-01T08:11:01.747Z,23.95
2022-11-01T08:13:28.352Z,30.65
2022-11-01T08:15:54.921Z,20.23
2022-11-01T08:18:22.601Z,21.95
2022-11-01T08:20:49.352Z,22.67
2022-11-01T08:23:15.835Z,21.10
2022-11-01T08:25:42.425Z,28.50
2022-11-01T08:28:11.758Z,32.42
2022-11-01T08:30:39.593Z,20.35
2022-11-01T08:33:06.398Z,27.08
2022-11-01T08:35:34.000Z,20.10
2022-11-01T08:38:01.233Z,23.50
2022-11-01T08:40:30.455Z,22.15
2022-11-01T08:42:57.470Z,21.92
2022-11-01T08:45:24.017Z,26.60
2022-11-01T08:47:50.451Z,23.58
2022-11-01T08:50:17.757Z,30.58
2022-11-01T08:52:44.235Z,26.10
2022-11-01T08:55:11.691Z,25.15
2022-11-01T08:57:38.340Z,23.50
2022-11-01T09:00:07.149Z,21.85
2022-11-01T09:02:34.065Z,22.58
2022-11-01T09:05:04.999Z,20.90
2022-11-01T09:07:31.643Z,26.52
2022-11-01T09:09:58.091Z,27.33
2022-11-01T09:12:25.070Z,28.23
2022-11-01T09:14:51.659Z,29.67
2022-11-01T09:17:18.277Z,36.63
2022-11-01T09:19:44.703Z,23.25
2022-11-01T09:22:11.237Z,26.88
2022-11-01T09:24:37.753Z,27.33
2022-11-01T09:27:04.414Z,27.17
2022-11-01T09:29:31.095Z,27.15
2022-11-01T09:31:57.592Z,24.08
2022-11-01T09:34:24.229Z,25.73
2022-11-01T09:36:50.778Z,28.17
2022-11-01T09:39:21.971Z,24.95
2022-11-01T09:41:51.150Z,23.13
2022-11-01T09:44:19.599Z,28.40
2022-11-01T09:46:48.695Z,25.73
2022-11-01T09:49:26.700Z,27.65
2022-11-01T09:51:53.288Z,28.63
2022-11-01T09:54:21.712Z,29.38
2022-11-01T09:57:14.462Z,23.30
2022-11-01T09:59:49.959Z,24.13
2022-11-01T10:02:30.440Z,23.55
2022-11-01T10:05:03.154Z,23.38
2022-11-01T10:07:38.500Z,27.17
2022-11-01T10:10:12.499Z,26.60
2022-11-01T10:12:54.501Z,27.60
2022-11-01T10:15:35.995Z,23.60
2022-11-01T10:18:14.528Z,25.33
2022-11-01T10:20:41.592Z,25.48
2022-11-01T10:23:10.641Z,25.05
2022-11-01T10:25:38.018Z,28.10
2022-11-01T10:28:10.366Z,28.48
2022-11-01T10:30:40.034Z,27.92
2022-11-01T10:33:09.317Z,30.23
2022-11-01T10:35:38.579Z,27.17
2022-11-01T10:38:25.082Z,28.15
2022-11-01T10:40:56.661Z,29.17
2022-11-01T10:43:24.393Z,28.00
2022-11-01T10:45:53.094Z,30.15
2022-11-01T10:48:34.054Z,35.65
2022-11-01T10:51:03.583Z,30.13
2022-11-01T10:53:33.164Z,28.88
2022-11-01T10:56:03.171Z,28.92
2022-11-01T10:58:46.738Z,31.90
2022-11-01T11:03:41.358Z,28.75
2022-11-01T11:06:13.291Z,30.88
2022-11-01T11:08:40.787Z,31.52
2022-11-01T11:11:12.504Z,33.55
2022-11-01T11:13:40.703Z,36.53
2022-11-01T11:16:07.777Z,39.13
2022-11-01T11:18:36.679Z,30.52
2022-11-01T11:21:05.653Z,31.83
2022-11-01T11:23:36.595Z,36.67
2022-11-01T11:26:08.051Z,33.13
2022-11-01T11:28:35.832Z,35.83
2022-11-01T11:31:15.564Z,30.83
2022-11-01T11:33:48.264Z,31.35
2022-11-01T11:36:15.077Z,28.33
2022-11-01T11:38:45.956Z,35.78
2022-11-01T11:41:13.620Z,33.60
2022-11-01T11:43:42.022Z,34.42
2022-11-01T11:46:19.195Z,36.10
2022-11-01T11:48:46.996Z,32.17
2022-11-01T11:51:13.770Z,32.22
2022-11-01T11:53:40.518Z,30.02
2022-11-01T11:56:08.400Z,32.50
2022-11-01T11:58:37.755Z,34.28
2022-11-01T12:01:06.102Z,31.55
2022-11-01T12:03:37.935Z,31.85
2022-11-01T12:06:08.770Z,33.92
2022-11-01T12:08:44.947Z,29.75
2022-11-01T12:11:12.044Z,31.33
2022-11-01T12:13:41.275Z,34.22
2022-11-01T12:16:07.823Z,34.08
2022-11-01T12:18:34.301Z,31.73
2022-11-01T12:21:01.121Z,31.50
2022-11-01T12:23:27.598Z,35.72
2022-11-01T12:25:54.469Z,31.55
2022-11-01T12:28:26.934Z,31.60
2022-11-01T12:30:57.867Z,33.00
2022-11-01T12:33:36.082Z,32.63
2022-11-01T12:36:02.673Z,35.85
2022-11-01T12:38:39.075Z,34.80
2022-11-01T12:41:13.812Z,34.78
2022-11-01T12:43:59.218Z,39.80
2022-11-01T12:46:35.836Z,37.67
2022-11-01T12:49:06.064Z,34.92
2022-11-01T12:51:40.635Z,38.10
2022-11-01T12:54:15.965Z,35.45
2022-11-01T12:56:42.526Z,33.00
2022-11-01T12:59:13.231Z,30.92
2022-11-01T13:01:39.824Z,32.80
2022-11-01T13:04:12.910Z,37.63
2022-11-01T13:06:55.795Z,32.10
2022-11-01T13:09:28.773Z,32.35
2022-11-01T13:11:55.184Z,28.97
2022-11-01T13:14:26.687Z,35.83
2022-11-01T13:17:06.062Z,35.53
2022-11-01T13:19:47.956Z,32.95
2022-11-01T13:22:21.251Z,36.85
2022-11-01T13:24:52.617Z,37.95
2022-11-01T13:27:26.267Z,33.80
2022-11-01T13:29:56.483Z,35.60
2022-11-01T13:32:24.038Z,42.33
2022-11-01T13:35:11.055Z,36.33
2022-11-01T13:37:44.697Z,40.58
2022-11-01T13:40:16.966Z,36.88
2022-11-01T13:42:46.203Z,45.90
2022-11-01T13:45:12.722Z,38.95
2022-11-01T13:47:56.725Z,43.53
2022-11-01T13:50:23.222Z,53.88
2022-11-01T13:52:57.971Z,36.83
2022-11-01T13:55:36.396Z,45.95
2022-11-01T13:58:05.627Z,36.13
2022-11-01T14:00:38.707Z,46.67
2022-11-01T14:03:20.526Z,37.78
2022-11-01T14:06:06.935Z,41.40
2022-11-01T14:08:43.338Z,39.83
2022-11-01T14:11:13.818Z,40.42
2022-11-01T14:13:41.469Z,40.53
2022-11-01T14:16:13.951Z,38.83
2022-11-01T14:18:59.014Z,40.00
2022-11-01T14:21:48.583Z,45.63
2022-11-01T14:24:20.790Z,41.45
2022-11-01T14:26:49.437Z,40.63
2022-11-01T14:29:16.268Z,52.40
2022-11-01T14:31:43.956Z,41.35
2022-11-01T14:34:20.900Z,40.00
2022-11-01T14:36:50.159Z,40.72
2022-11-01T14:39:19.452Z,35.90
2022-11-01T14:41:47.107Z,46.47
2022-11-01T14:44:30.816Z,46.00
2022-11-01T14:46:58.657Z,54.70
2022-11-01T14:49:27.908Z,52.00
2022-11-01T14:51:56.770Z,46.38
2022-11-01T14:54:32.327Z,49.42
2022-11-01T14:56:58.851Z,40.53
2022-11-01T14:59:26.685Z,48.92
2022-11-01T15:01:59.462Z,47.97
2022-11-01T15:04:31.554Z,51.33
2022-11-01T15:06:59.321Z,52.20
2022-11-01T15:09:28.004Z,45.03
2022-11-01T15:12:02.527Z,46.97
2022-11-01T15:14:35.212Z,42.10
2022-11-01T15:17:01.843Z,48.22
2022-11-01T15:19:31.899Z,60.83
2022-11-01T15:22:03.186Z,53.47
2022-11-01T15:24:31.794Z,57.03
2022-11-01T15:27:05.771Z,41.97
2022-11-01T15:29:32.326Z,53.22
2022-11-01T15:32:00.689Z,50.67
2022-11-01T15:34:28.898Z,55.22
2022-11-01T15:36:55.897Z,51.72
2022-11-01T15:39:24.025Z,50.67
2022-11-01T15:41:50.879Z,50.85
2022-11-01T15:44:27.747Z,57.85
2022-11-01T15:46:58.440Z,48.47
2022-11-01T15:49:26.790Z,47.25
2022-11-01T15:51:56.134Z,41.92
2022-11-01T15:54:30.894Z,41.72
2022-11-01T15:56:59.951Z,40.58
2022-11-01T15:59:52.891Z,55.05
2022-11-01T16:02:27.942Z,57.35
2022-11-01T16:04:55.466Z,58.63
2022-11-01T16:07:22.111Z,50.10
2022-11-01T16:10:09.157Z,62.92
2022-11-01T16:12:38.586Z,49.38
2022-11-01T16:15:07.967Z,47.92
2022-11-01T16:17:35.831Z,52.00
2022-11-01T16:20:05.261Z,49.95
2022-11-01T16:22:41.066Z,50.53
2022-11-01T16:25:07.642Z,52.78
2022-11-01T16:27:35.963Z,57.47
2022-11-01T16:30:10.498Z,40.55
2022-11-01T16:32:37.127Z,51.00
2022-11-01T16:35:22.043Z,61.75
2022-11-01T16:37:48.540Z,51.35
2022-11-01T16:40:25.647Z,63.05
2022-11-01T16:42:52.298Z,58.88
2022-11-01T16:45:18.827Z,65.30
2022-11-01T16:47:45.269Z,60.05
2022-11-01T16:50:15.968Z,60.55
2022-11-01T16:52:42.460Z,56.50
2022-11-01T16:55:11.403Z,55.17
2022-11-01T16:57:38.550Z,52.05
2022-11-01T17:00:11.224Z,54.85
2022-11-01T17:02:38.530Z,47.38
2022-11-01T17:05:15.515Z,57.22
2022-11-01T17:07:42.007Z,60.30
2022-11-01T17:10:26.619Z,49.53
2022-11-01T17:12:57.621Z,42.60
2022-11-01T17:15:26.747Z,53.63
2022-11-01T17:17:53.929Z,37.25
2022-11-01T17:20:26.447Z,43.25
2022-11-01T17:22:54.046Z,33.53
2022-11-01T17:25:21.082Z,36.90
2022-11-01T17:27:51.151Z,42.65
2022-11-01T17:30:18.514Z,38.75
2022-11-01T17:32:45.020Z,44.78
2022-11-01T17:35:11.894Z,46.17
2022-11-01T17:37:39.791Z,45.92
2022-11-01T17:40:15.699Z,44.70
2022-11-01T17:42:42.194Z,37.90
2022-11-01T17:45:09.183Z,41.55
2022-11-01T17:47:35.775Z,37.90
2022-11-01T17:50:02.260Z,46.70
2022-11-01T17:52:28.762Z,37.35
2022-11-01T17:54:55.317Z,44.92
2022-11-01T17:57:21.854Z,36.40
2022-11-01T17:59:48.684Z,45.42
2022-11-01T18:02:15.548Z,45.25
2022-11-01T18:04:42.274Z,44.92
2022-11-01T18:07:11.059Z,43.08
2022-11-01T18:09:39.258Z,48.28
2022-11-01T18:12:05.798Z,53.83
2022-11-01T18:14:35.519Z,38.85
2022-11-01T18:17:04.936Z,51.72
2022-11-01T18:19:50.596Z,57.42
2022-11-01T18:22:17.108Z,61.33
2022-11-01T18:24:48.359Z,70.28
2022-11-01T18:27:18.478Z,65.15
2022-11-01T18:29:46.414Z,69.18
2022-11-01T18:32:23.778Z,62.30
2022-11-01T18:35:01.577Z,61.28
2022-11-01T18:37:37.157Z,54.90
2022-11-01T18:40:12.646Z,59.25
2022-11-01T18:42:39.302Z,55.97
2022-11-01T18:45:19.717Z,51.15
2022-11-01T18:47:48.077Z,66.40
2022-11-01T18:50:19.889Z,47.50
2022-11-01T18:52:46.372Z,55.30
2022-11-01T18:55:13.848Z,75.55
2022-11-01T18:57:40.515Z,69.45
2022-11-01T19:00:12.464Z,80.85
2022-11-01T19:02:39.924Z,76.10
2022-11-01T19:05:25.549Z,88.40
2022-11-01T19:08:11.022Z,68.03
2022-11-01T19:10:38.241Z,53.00
2022-11-01T19:13:09.615Z,58.03
2022-11-01T19:15:36.089Z,47.33
2022-11-01T19:18:04.643Z,62.80
2022-11-01T19:21:00.883Z,55.33
2022-11-01T19:23:38.249Z,44.22
2022-11-01T19:26:14.390Z,54.58
2022-11-01T19:28:41.035Z,66.18
2022-11-01T19:31:15.490Z,56.05
2022-11-01T19:33:44.252Z,42.47
2022-11-01T19:36:13.699Z,55.05
2022-11-01T19:38:44.805Z,54.00
2022-11-01T19:41:13.853Z,45.58
2022-11-01T19:43:40.373Z,41.63
2022-11-01T19:46:15.413Z,48.40
2022-11-01T19:48:42.607Z,57.00
2022-11-01T19:51:18.458Z,46.65
2022-11-01T19:53:45.468Z,44.10
2022-11-01T19:56:26.306Z,45.67
2022-11-01T19:58:59.877Z,44.80
2022-11-01T20:01:46.174Z,51.33
2022-11-01T20:04:15.429Z,60.10
2022-11-01T20:06:48.548Z,50.65
2022-11-01T20:09:15.025Z,55.58
2022-11-01T20:11:41.548Z,48.65
2022-11-01T20:14:08.222Z,60.35
2022-11-01T20:16:34.753Z,66.93
2022-11-01T20:19:01.293Z,56.15
2022-11-01T20:21:27.902Z,53.42
2022-11-01T20:23:54.457Z,62.63
2022-11-01T20:26:21.105Z,48.60
2022-11-01T20:28:49.127Z,59.83
2022-11-01T20:31:15.902Z,67.93
2022-11-01T20:33:42.552Z,62.88
2022-11-01T20:36:11.332Z,63.63
2022-11-01T20:38:38.585Z,60.92
2022-11-01T20:41:05.092Z,64.05
2022-11-01T20:43:31.886Z,57.67
2022-11-01T20:45:58.488Z,54.03
2022-11-01T20:48:25.840Z,57.45
2022-11-01T20:50:53.526Z,48.42
2022-11-01T20:53:20.014Z,43.60
2022-11-01T20:55:46.597Z,40.83
2022-11-01T20:58:14.227Z,58.58
2022-11-01T21:00:40.725Z,46.50
2022-11-01T21:03:15.229Z,49.30
2022-11-01T21:05:42.391Z,47.60
2022-11-01T21:08:15.178Z,48.53
2022-11-01T21:10:42.624Z,40.85
2022-11-01T21:13:18.979Z,42.70
2022-11-01T21:15:48.078Z,48.13
2022-11-01T21:18:14.606Z,51.25
2022-11-01T21:20:42.349Z,44.33
2022-11-01T21:23:36.826Z,44.80
2022-11-01T21:26:12.872Z,47.13
2022-11-01T21:28:44.451Z,52.65
2022-11-01T21:31:10.902Z,43.15
2022-11-01T21:33:39.157Z,43.35
2022-11-01T21:36:17.718Z,49.30
2022-11-01T21:38:45.766Z,49.75
2022-11-01T21:41:21.267Z,47.63
2022-11-01T21:43:47.767Z,48.38
2022-11-01T21:46:16.405Z,47.45
2022-11-01T21:48:42.922Z,46.33
2022-11-01T21:51:09.398Z,47.80
2022-11-01T21:53:36.029Z,47.92
2022-11-01T21:56:02.643Z,43.95
2022-11-01T21:58:29.240Z,46.70
2022-11-01T22:00:56.054Z,50.90
2022-11-01T22:03:22.590Z,60.65
2022-11-01T22:05:48.997Z,49.75
2022-11-01T22:08:15.472Z,59.05
2022-11-01T22:10:41.961Z,51.67
2022-11-01T22:13:08.755Z,53.80
2022-11-01T22:15:35.671Z,60.63
2022-11-01T22:18:02.197Z,50.75
2022-11-01T22:20:28.632Z,52.00
2022-11-01T22:22:55.245Z,64.00
2022-11-01T22:25:21.846Z,48.60
2022-11-01T22:27:48.523Z,59.75
2022-11-01T22:30:15.577Z,56.15
2022-11-01T22:32:42.536Z,53.92
2022-11-01T22:35:09.090Z,57.85
2022-11-01T22:37:35.691Z,61.50
2022-11-01T22:40:09.103Z,56.17
2022-11-01T22:45:01.972Z,56.15
2022-11-01T22:47:28.694Z,59.70
2022-11-01T22:49:57.055Z,60.42
2022-11-01T22:52:26.861Z,58.75
2022-11-01T22:54:59.550Z,55.53
2022-11-01T22:57:28.356Z,57.30
2022-11-01T22:59:56.315Z,57.65
2022-11-01T23:02:30.428Z,62.72
2022-11-01T23:04:59.519Z,56.50
2022-11-01T23:07:34.988Z,59.85
2022-11-01T23:10:07.034Z,53.75
2022-11-01T23:12:54.564Z,62.38
2022-11-01T23:15:28.923Z,61.33
2022-11-01T23:18:22.240Z,61.65
2022-11-01T23:20:54.304Z,61.65
2022-11-01T23:23:21.147Z,59.75
2022-11-01T23:25:47.889Z,60.55
2022-11-01T23:28:15.058Z,58.25
2022-11-01T23:30:42.713Z,69.28
2022-11-01T23:33:13.337Z,67.40
2022-11-01T23:35:40.271Z,59.25
2022-11-01T23:38:15.183Z,62.10
2022-11-01T23:40:42.955Z,65.22
2022-11-01T23:43:27.719Z,61.10
2022-11-01T23:45:54.342Z,59.03
2022-11-01T23:48:22.351Z,65.07
2022-11-01T23:50:50.382Z,58.97
2022-11-01T23:53:18.915Z,64.88
2022-11-01T23:55:48.149Z,59.00
2022-11-01T23:58:19.658Z,58.50
